Time;durP1;ratioP1;P1;durP2;ratioP2;P2;SDS_P1;SDS_P2;PMS_P1;PMS_P2;Temp;Humidity;BMP_temperature;BMP_pressure;BME280_temperature;BME280_humidity;BME280_pressure;Samples;Min_cycle;Max_cycle;Signal;HPM_P1;HPM_P2
2022/07/22 00:00:55;;;;;;;5.95;5.45;;;;;;;;;;5117343;28;20662;-67
2022/07/22 00:03:25;;;;;;;6.05;5.65;;;;;;;;;;5117831;28;20195;-67
2022/07/22 00:05:52;;;;;;;5.90;5.38;;;;;;;;;;5118708;28;20206;-66
2022/07/22 00:08:19;;;;;;;5.80;5.40;;;;;;;;;;5117563;28;20199;-66
2022/07/22 00:10:47;;;;;;;5.78;5.38;;;;;;;;;;5118470;28;20331;-66
2022/07/22 00:13:14;;;;;;;5.43;5.03;;;;;;;;;;5117499;28;20198;-66
2022/07/22 00:15:42;;;;;;;5.68;5.28;;;;;;;;;;5117982;28;20231;-66
2022/07/22 00:18:10;;;;;;;5.55;5.20;;;;;;;;;;5117034;28;20249;-67
2022/07/22 00:20:38;;;;;;;5.65;5.25;;;;;;;;;;5117249;28;20198;-66
2022/07/22 00:23:05;;;;;;;6.05;5.65;;;;;;;;;;5117646;28;20280;-66
2022/07/22 00:25:33;;;;;;;6.25;5.75;;;;;;;;;;5117490;28;20207;-67
2022/07/22 00:28:00;;;;;;;5.88;5.47;;;;;;;;;;5120211;27;20289;-67
2022/07/22 00:30:27;;;;;;;6.53;5.93;;;;;;;;;;5117317;28;20221;-67
2022/07/22 00:32:54;;;;;;;6.00;5.60;;;;;;;;;;5117267;28;20248;-67
2022/07/22 00:35:23;;;;;;;6.22;5.70;;;;;;;;;;5120739;27;20550;-67
2022/07/22 00:37:50;;;;;;;5.82;5.32;;;;;;;;;;5136991;27;20190;-66
2022/07/22 00:40:18;;;;;;;6.05;5.63;;;;;;;;;;5135038;27;20202;-67
2022/07/22 00:42:45;;;;;;;6.20;5.60;;;;;;;;;;5127679;27;21754;-67
2022/07/22 00:45:13;;;;;;;6.00;5.60;;;;;;;;;;5116876;28;20578;-66
2022/07/22 00:47:40;;;;;;;6.32;5.82;;;;;;;;;;5130690;27;20263;-67
2022/07/22 00:50:08;;;;;;;5.93;5.53;;;;;;;;;;5121876;28;20198;-67
2022/07/22 00:52:37;;;;;;;5.95;5.55;;;;;;;;;;5132992;27;20195;-66
2022/07/22 00:55:05;;;;;;;6.00;5.60;;;;;;;;;;5117081;28;20230;-66
2022/07/22 00:57:32;;;;;;;6.43;5.80;;;;;;;;;;5116939;27;20583;-66
2022/07/22 01:00:00;;;;;;;5.65;5.25;;;;;;;;;;5133303;27;20205;-66
2022/07/22 01:02:27;;;;;;;6.60;6.07;;;;;;;;;;5137067;27;20263;-66
2022/07/22 01:04:54;;;;;;;6.20;5.78;;;;;;;;;;5137070;28;20198;-66
2022/07/22 01:07:22;;;;;;;6.10;5.70;;;;;;;;;;5136707;28;20197;-68
2022/07/22 01:09:51;;;;;;;6.43;5.93;;;;;;;;;;5134852;27;20616;-66
2022/07/22 01:12:18;;;;;;;6.22;5.72;;;;;;;;;;5133472;27;20207;-69
2022/07/22 01:14:45;;;;;;;6.20;5.75;;;;;;;;;;5121274;28;20482;-66
2022/07/22 01:17:12;;;;;;;6.15;5.75;;;;;;;;;;5120831;28;20775;-67
2022/07/22 01:19:40;;;;;;;6.18;5.78;;;;;;;;;;5134230;27;20206;-66
2022/07/22 01:22:09;;;;;;;6.18;5.72;;;;;;;;;;5135238;27;20209;-66
2022/07/22 01:24:37;;;;;;;6.72;6.07;;;;;;;;;;5131420;27;20198;-66
2022/07/22 01:27:04;;;;;;;6.57;6.07;;;;;;;;;;5141162;27;20190;-66
2022/07/22 01:29:31;;;;;;;6.35;5.85;;;;;;;;;;5129349;27;20238;-66
2022/07/22 01:31:59;;;;;;;6.25;5.85;;;;;;;;;;5120934;28;20202;-66
2022/07/22 01:34:27;;;;;;;6.40;5.90;;;;;;;;;;5133004;27;20310;-67
2022/07/22 01:36:54;;;;;;;6.30;5.85;;;;;;;;;;5141678;27;20202;-66
2022/07/22 01:39:23;;;;;;;6.35;5.95;;;;;;;;;;5139696;27;20198;-66
2022/07/22 01:41:50;;;;;;;6.68;6.18;;;;;;;;;;5141383;27;20187;-66
2022/07/22 01:44:17;;;;;;;6.30;5.90;;;;;;;;;;5141310;27;20198;-66
2022/07/22 01:46:45;;;;;;;6.72;6.22;;;;;;;;;;5141051;27;20219;-67
2022/07/22 01:49:12;;;;;;;6.15;5.75;;;;;;;;;;5130596;27;20543;-66
2022/07/22 01:51:40;;;;;;;6.40;6.00;;;;;;;;;;5122625;27;20264;-66
2022/07/22 01:54:07;;;;;;;6.50;6.00;;;;;;;;;;5120396;28;20252;-66
2022/07/22 01:56:36;;;;;;;6.97;6.47;;;;;;;;;;5128402;27;20195;-67
2022/07/22 01:59:03;;;;;;;6.55;6.05;;;;;;;;;;5127410;27;20293;-67
2022/07/22 02:01:31;;;;;;;6.47;5.97;;;;;;;;;;5140556;27;20202;-67
2022/07/22 02:03:58;;;;;;;6.47;5.97;;;;;;;;;;5141164;27;20487;-67
2022/07/22 02:06:26;;;;;;;6.30;5.80;;;;;;;;;;5139421;27;20205;-66
2022/07/22 02:08:53;;;;;;;6.43;5.97;;;;;;;;;;5121336;27;20696;-66
2022/07/22 02:11:20;;;;;;;6.70;6.10;;;;;;;;;;5120844;27;20202;-67
2022/07/22 02:13:49;;;;;;;6.85;6.30;;;;;;;;;;5120438;28;20222;-66
2022/07/22 02:16:17;;;;;;;6.93;6.43;;;;;;;;;;5119798;27;20279;-66
2022/07/22 02:18:44;;;;;;;6.85;6.32;;;;;;;;;;5119933;28;20272;-67
2022/07/22 02:21:11;;;;;;;6.95;6.45;;;;;;;;;;5120066;28;20275;-66
2022/07/22 02:23:38;;;;;;;6.50;6.03;;;;;;;;;;5139553;27;20210;-66
2022/07/22 02:26:06;;;;;;;6.90;6.43;;;;;;;;;;5125016;27;20203;-67
2022/07/22 02:28:33;;;;;;;6.80;6.30;;;;;;;;;;5137949;27;20283;-67
2022/07/22 02:31:02;;;;;;;7.13;6.63;;;;;;;;;;5140901;27;20202;-67
2022/07/22 02:33:29;;;;;;;6.47;6.07;;;;;;;;;;5121286;27;20199;-66
2022/07/22 02:35:57;;;;;;;6.85;6.25;;;;;;;;;;5119373;28;20519;-66
2022/07/22 02:38:24;;;;;;;6.80;6.10;;;;;;;;;;5118741;28;20203;-66
2022/07/22 02:40:52;;;;;;;6.20;5.80;;;;;;;;;;5118599;28;20210;-66
2022/07/22 02:43:19;;;;;;;6.22;5.82;;;;;;;;;;5118929;28;20207;-67
2022/07/22 02:45:47;;;;;;;6.18;5.75;;;;;;;;;;5119230;28;20207;-66
2022/07/22 02:48:15;;;;;;;6.47;5.97;;;;;;;;;;5119111;28;20276;-67
2022/07/22 02:50:46;;;;;;;6.45;6.05;;;;;;;;;;5117968;28;20203;-66
2022/07/22 02:53:14;;;;;;;7.45;6.85;;;;;;;;;;5118591;28;20767;-66
2022/07/22 02:55:41;;;;;;;6.57;6.07;;;;;;;;;;5118895;28;20227;-67
2022/07/22 02:58:09;;;;;;;6.50;5.95;;;;;;;;;;5118503;28;20534;-66
2022/07/22 03:00:37;;;;;;;6.80;6.30;;;;;;;;;;5118476;28;20206;-66
2022/07/22 03:03:05;;;;;;;5.93;5.53;;;;;;;;;;5123817;27;20202;-66
2022/07/22 03:05:33;;;;;;;6.78;6.28;;;;;;;;;;5139224;27;20573;-66
2022/07/22 03:08:01;;;;;;;6.90;6.40;;;;;;;;;;5118878;28;20209;-66
2022/07/22 03:10:28;;;;;;;7.22;6.63;;;;;;;;;;5119371;28;20644;-67
2022/07/22 03:12:56;;;;;;;6.80;6.30;;;;;;;;;;5124679;27;20195;-66
2022/07/22 03:15:23;;;;;;;7.00;6.50;;;;;;;;;;5119138;28;20254;-66
2022/07/22 03:17:50;;;;;;;6.75;6.25;;;;;;;;;;5118990;28;20259;-66
2022/07/22 03:20:17;;;;;;;6.32;5.93;;;;;;;;;;5119254;28;20203;-66
2022/07/22 03:22:46;;;;;;;6.50;6.00;;;;;;;;;;5124554;27;20236;-67
2022/07/22 03:25:14;;;;;;;6.88;6.38;;;;;;;;;;5119365;28;20207;-66
2022/07/22 03:27:41;;;;;;;6.68;6.18;;;;;;;;;;5118933;28;20554;-66
2022/07/22 03:30:09;;;;;;;7.18;6.68;;;;;;;;;;5118290;28;20665;-66
2022/07/22 03:32:36;;;;;;;7.28;6.70;;;;;;;;;;5117833;28;20195;-66
2022/07/22 03:35:04;;;;;;;7.20;6.60;;;;;;;;;;5118404;28;20288;-66
2022/07/22 03:37:31;;;;;;;6.57;6.07;;;;;;;;;;5117760;28;20195;-66
2022/07/22 03:40:00;;;;;;;6.78;6.28;;;;;;;;;;5119334;28;20582;-66
2022/07/22 03:42:27;;;;;;;6.80;6.20;;;;;;;;;;5118338;28;20483;-66
2022/07/22 03:44:55;;;;;;;7.10;6.50;;;;;;;;;;5118543;28;20191;-66
2022/07/22 03:47:23;;;;;;;6.88;6.38;;;;;;;;;;5118356;28;20199;-66
2022/07/22 03:49:51;;;;;;;7.28;6.68;;;;;;;;;;5117968;28;20267;-66
2022/07/22 03:52:18;;;;;;;7.00;6.50;;;;;;;;;;5117762;28;20202;-66
2022/07/22 03:54:45;;;;;;;7.07;6.57;;;;;;;;;;5117828;28;20207;-66
2022/07/22 03:57:14;;;;;;;6.90;6.40;;;;;;;;;;5118215;28;20199;-66
2022/07/22 03:59:41;;;;;;;7.13;6.53;;;;;;;;;;5117187;28;20252;-66
2022/07/22 04:02:09;;;;;;;6.32;5.93;;;;;;;;;;5117425;28;20293;-66
2022/07/22 04:04:36;;;;;;;7.22;6.72;;;;;;;;;;5118250;28;20195;-66
2022/07/22 04:07:03;;;;;;;7.00;6.50;;;;;;;;;;5117776;28;20207;-66
2022/07/22 04:09:31;;;;;;;6.95;6.45;;;;;;;;;;5118521;28;20203;-66
2022/07/22 04:11:58;;;;;;;7.15;6.65;;;;;;;;;;5116879;28;20199;-66
2022/07/22 04:14:27;;;;;;;7.28;6.78;;;;;;;;;;5117560;28;20210;-66
2022/07/22 04:16:55;;;;;;;6.90;6.40;;;;;;;;;;5117016;28;20226;-66
2022/07/22 04:19:22;;;;;;;7.28;6.72;;;;;;;;;;5116420;28;20199;-66
2022/07/22 04:21:49;;;;;;;7.10;6.60;;;;;;;;;;5116539;28;20203;-66
2022/07/22 04:24:16;;;;;;;7.10;6.60;;;;;;;;;;5117697;28;20203;-66
2022/07/22 04:26:44;;;;;;;7.15;6.65;;;;;;;;;;5117214;28;20252;-66
2022/07/22 04:29:11;;;;;;;7.35;6.75;;;;;;;;;;5117098;27;20642;-66
2022/07/22 04:31:40;;;;;;;7.30;6.70;;;;;;;;;;5125461;27;20676;-66
2022/07/22 04:34:08;;;;;;;7.53;6.93;;;;;;;;;;5114965;27;20199;-66
2022/07/22 04:36:35;;;;;;;7.30;6.80;;;;;;;;;;5117767;27;20257;-66
2022/07/22 04:39:02;;;;;;;7.40;6.90;;;;;;;;;;5134559;27;20210;-66
2022/07/22 04:41:29;;;;;;;7.28;6.72;;;;;;;;;;5134914;27;20570;-66
2022/07/22 04:43:57;;;;;;;7.40;6.80;;;;;;;;;;5117491;27;20199;-66
2022/07/22 04:46:24;;;;;;;7.80;7.22;;;;;;;;;;5116822;27;20217;-66
2022/07/22 04:48:54;;;;;;;7.18;6.68;;;;;;;;;;5136364;27;20213;-66
2022/07/22 04:51:21;;;;;;;7.50;6.90;;;;;;;;;;5129621;27;20195;-66
2022/07/22 04:53:48;;;;;;;7.38;6.88;;;;;;;;;;5126086;27;20229;-66
2022/07/22 04:56:16;;;;;;;7.20;6.70;;;;;;;;;;5116462;27;20223;-66
2022/07/22 04:58:43;;;;;;;7.55;6.90;;;;;;;;;;5136297;27;20201;-66
2022/07/22 05:01:10;;;;;;;7.47;6.97;;;;;;;;;;5129380;27;20260;-66
2022/07/22 05:03:39;;;;;;;7.25;6.68;;;;;;;;;;5131485;28;20198;-66
2022/07/22 05:06:08;;;;;;;7.50;6.90;;;;;;;;;;5136907;28;20198;-66
2022/07/22 05:08:35;;;;;;;7.00;6.40;;;;;;;;;;5135825;28;20263;-66
2022/07/22 05:11:03;;;;;;;7.50;7.00;;;;;;;;;;5136721;28;20198;-66
2022/07/22 05:13:30;;;;;;;7.75;7.18;;;;;;;;;;5118863;28;20229;-66
2022/07/22 05:15:57;;;;;;;7.65;7.05;;;;;;;;;;5135543;28;20294;-66
2022/07/22 05:18:24;;;;;;;7.65;7.05;;;;;;;;;;5133636;28;20868;-66
2022/07/22 05:20:52;;;;;;;7.53;7.03;;;;;;;;;;5136401;28;20255;-66
2022/07/22 05:23:20;;;;;;;8.15;7.55;;;;;;;;;;5121043;28;20198;-66
2022/07/22 05:25:48;;;;;;;7.25;6.75;;;;;;;;;;5115259;28;20210;-66
2022/07/22 05:28:15;;;;;;;6.93;6.43;;;;;;;;;;5115547;28;20769;-66
2022/07/22 05:30:43;;;;;;;8.00;7.40;;;;;;;;;;5115297;28;20191;-66
2022/07/22 05:33:10;;;;;;;7.45;6.85;;;;;;;;;;5115473;28;20199;-66
2022/07/22 05:35:37;;;;;;;7.22;6.72;;;;;;;;;;5126669;28;20218;-69
2022/07/22 05:38:05;;;;;;;7.28;6.75;;;;;;;;;;5119714;28;20206;-66
2022/07/22 05:40:34;;;;;;;6.90;6.40;;;;;;;;;;5116709;28;20501;-66
2022/07/22 05:43:01;;;;;;;7.75;7.15;;;;;;;;;;5114993;28;20195;-66
2022/07/22 05:45:28;;;;;;;7.85;7.20;;;;;;;;;;5115315;28;20195;-66
2022/07/22 05:47:56;;;;;;;7.25;6.65;;;;;;;;;;5115455;28;20257;-67
2022/07/22 05:50:23;;;;;;;7.07;6.57;;;;;;;;;;5115794;28;20320;-66
2022/07/22 05:52:51;;;;;;;7.65;7.05;;;;;;;;;;5115832;28;20194;-66
2022/07/22 05:55:18;;;;;;;7.85;7.25;;;;;;;;;;5116285;28;20207;-66
2022/07/22 05:57:47;;;;;;;7.35;6.75;;;;;;;;;;5118800;28;20516;-66
2022/07/22 06:00:14;;;;;;;7.80;7.20;;;;;;;;;;5119219;28;20598;-66
2022/07/22 06:02:42;;;;;;;7.40;6.90;;;;;;;;;;5118858;28;20614;-66
2022/07/22 06:05:09;;;;;;;7.05;6.55;;;;;;;;;;5119037;28;20206;-66
2022/07/22 06:07:38;;;;;;;7.15;6.65;;;;;;;;;;5119201;28;20191;-67
2022/07/22 06:10:06;;;;;;;7.88;7.18;;;;;;;;;;5119100;28;20225;-66
2022/07/22 06:12:33;;;;;;;7.22;6.75;;;;;;;;;;5118383;28;20275;-66
2022/07/22 06:15:01;;;;;;;6.90;6.40;;;;;;;;;;5139292;27;20202;-66
2022/07/22 06:17:29;;;;;;;7.30;6.80;;;;;;;;;;5127860;27;20283;-66
2022/07/22 06:19:56;;;;;;;7.60;7.10;;;;;;;;;;5132095;27;20195;-65
2022/07/22 06:22:24;;;;;;;7.63;7.13;;;;;;;;;;5118545;28;20206;-66
2022/07/22 06:24:51;;;;;;;7.72;7.13;;;;;;;;;;5118124;28;20199;-65
2022/07/22 06:27:18;;;;;;;7.68;7.13;;;;;;;;;;5117884;28;20203;-65
2022/07/22 06:29:45;;;;;;;7.68;7.07;;;;;;;;;;5117164;28;20305;-66
2022/07/22 06:32:14;;;;;;;7.30;6.80;;;;;;;;;;5116855;28;20199;-65
2022/07/22 06:34:42;;;;;;;7.65;7.05;;;;;;;;;;5118422;28;20199;-65
2022/07/22 06:37:09;;;;;;;7.53;7.03;;;;;;;;;;5116680;28;20245;-65
2022/07/22 06:39:36;;;;;;;7.57;7.07;;;;;;;;;;5113528;28;20191;-66
2022/07/22 06:42:04;;;;;;;7.70;7.20;;;;;;;;;;5117396;28;20206;-66
2022/07/22 06:44:31;;;;;;;7.85;7.22;;;;;;;;;;5117442;28;20199;-66
2022/07/22 06:46:59;;;;;;;7.88;7.35;;;;;;;;;;5117254;28;20244;-66
2022/07/22 06:49:27;;;;;;;7.88;7.28;;;;;;;;;;5116170;28;20481;-66
2022/07/22 06:51:54;;;;;;;7.75;7.15;;;;;;;;;;5116539;28;20203;-66
2022/07/22 06:54:22;;;;;;;7.95;7.25;;;;;;;;;;5116434;28;20478;-66
2022/07/22 06:56:49;;;;;;;7.80;7.20;;;;;;;;;;5117178;28;20276;-66
2022/07/22 06:59:17;;;;;;;7.60;7.00;;;;;;;;;;5117376;28;20214;-66
2022/07/22 07:01:44;;;;;;;7.90;7.28;;;;;;;;;;5117272;28;20288;-66
2022/07/22 07:04:11;;;;;;;7.90;7.28;;;;;;;;;;5116115;28;20252;-66
2022/07/22 07:06:40;;;;;;;8.45;7.85;;;;;;;;;;5116696;28;20199;-66
2022/07/22 07:09:07;;;;;;;7.75;7.13;;;;;;;;;;5115643;28;20206;-66
2022/07/22 07:11:35;;;;;;;8.13;7.53;;;;;;;;;;5116992;28;20200;-66
2022/07/22 07:14:04;;;;;;;8.85;8.13;;;;;;;;;;5116265;28;20294;-66
2022/07/22 07:16:31;;;;;;;8.25;7.65;;;;;;;;;;5116883;28;20226;-66
2022/07/22 07:18:59;;;;;;;8.30;7.63;;;;;;;;;;5117212;28;20203;-66
2022/07/22 07:21:26;;;;;;;8.30;7.70;;;;;;;;;;5116807;28;20245;-69
2022/07/22 07:23:55;;;;;;;8.52;7.93;;;;;;;;;;5116723;28;20190;-66
2022/07/22 07:26:23;;;;;;;8.38;7.78;;;;;;;;;;5116931;28;20501;-66
2022/07/22 07:28:50;;;;;;;8.38;7.78;;;;;;;;;;5128370;27;20275;-66
2022/07/22 07:31:18;;;;;;;7.90;7.30;;;;;;;;;;5137643;27;20263;-66
2022/07/22 07:33:46;;;;;;;8.70;8.10;;;;;;;;;;5122772;27;20260;-66
2022/07/22 07:36:13;;;;;;;8.50;7.85;;;;;;;;;;5127885;27;20625;-66
2022/07/22 07:38:41;;;;;;;8.55;7.85;;;;;;;;;;5116775;28;20238;-66
2022/07/22 07:41:10;;;;;;;8.20;7.60;;;;;;;;;;5117904;27;20736;-66
2022/07/22 07:43:38;;;;;;;8.57;7.97;;;;;;;;;;5121665;27;20206;-66
2022/07/22 07:46:05;;;;;;;8.23;7.63;;;;;;;;;;5137313;27;20190;-66
2022/07/22 07:48:32;;;;;;;7.97;7.47;;;;;;;;;;5132785;27;20206;-66
2022/07/22 07:51:00;;;;;;;8.38;7.78;;;;;;;;;;5136753;27;20555;-66
2022/07/22 07:53:27;;;;;;;7.95;7.35;;;;;;;;;;5124775;27;20194;-66
2022/07/22 07:55:55;;;;;;;7.90;7.30;;;;;;;;;;5122617;27;20246;-66
2022/07/22 07:58:23;;;;;;;8.25;7.65;;;;;;;;;;5136430;27;20203;-66
2022/07/22 08:00:51;;;;;;;7.75;7.15;;;;;;;;;;5136814;27;20210;-66
2022/07/22 08:03:18;;;;;;;8.30;7.65;;;;;;;;;;5127397;27;20203;-66
2022/07/22 08:05:46;;;;;;;8.65;7.95;;;;;;;;;;5122665;27;20226;-66
2022/07/22 08:08:14;;;;;;;8.00;7.40;;;;;;;;;;5135892;27;20244;-66
2022/07/22 08:10:41;;;;;;;8.35;7.68;;;;;;;;;;5135442;27;20221;-66
2022/07/22 08:13:09;;;;;;;8.23;7.57;;;;;;;;;;5136877;27;20270;-66
2022/07/22 08:15:37;;;;;;;8.25;7.65;;;;;;;;;;5137157;27;20210;-66
2022/07/22 08:18:05;;;;;;;8.45;7.75;;;;;;;;;;5136002;27;20272;-66
2022/07/22 08:20:33;;;;;;;8.05;7.45;;;;;;;;;;5128033;27;20198;-67
2022/07/22 08:23:00;;;;;;;8.38;7.68;;;;;;;;;;5115554;28;20210;-66
2022/07/22 08:25:27;;;;;;;8.77;8.07;;;;;;;;;;5115658;28;20210;-66
2022/07/22 08:27:55;;;;;;;8.57;7.63;;;;;;;;;;5117744;27;20227;-66
2022/07/22 08:30:26;;;;;;;9.00;8.10;;;;;;;;;;5135028;27;20198;-66
2022/07/22 08:32:56;;;;;;;9.60;8.60;;;;;;;;;;5134657;27;20203;-66
2022/07/22 08:35:23;;;;;;;8.80;8.00;;;;;;;;;;5134886;27;20263;-66
2022/07/22 08:37:50;;;;;;;9.27;8.45;;;;;;;;;;5135145;27;20523;-66
2022/07/22 08:40:18;;;;;;;8.85;8.05;;;;;;;;;;5135526;27;20211;-66
2022/07/22 08:42:46;;;;;;;8.45;7.65;;;;;;;;;;5135650;27;20195;-66
2022/07/22 08:45:14;;;;;;;8.32;7.53;;;;;;;;;;5137088;27;20198;-67
2022/07/22 08:47:41;;;;;;;8.40;7.70;;;;;;;;;;5136158;27;20517;-67
2022/07/22 08:50:11;;;;;;;8.93;8.15;;;;;;;;;;5135121;27;20267;-66
2022/07/22 08:52:38;;;;;;;8.65;7.85;;;;;;;;;;5134482;27;20460;-67
2022/07/22 08:55:06;;;;;;;8.30;7.60;;;;;;;;;;5136337;27;20208;-66
2022/07/22 08:57:33;;;;;;;8.18;7.47;;;;;;;;;;5135053;27;20218;-66
2022/07/22 09:00:02;;;;;;;8.93;8.13;;;;;;;;;;5134978;27;20211;-67
2022/07/22 09:02:37;;;;;;;8.75;7.85;;;;;;;;;;5133626;27;20655;-66
2022/07/22 09:05:05;;;;;;;8.38;7.63;;;;;;;;;;5134735;27;20235;-67
2022/07/22 09:07:35;;;;;;;8.35;7.65;;;;;;;;;;5132827;28;20191;-67
2022/07/22 09:10:03;;;;;;;8.35;7.55;;;;;;;;;;5127485;28;20194;-67
2022/07/22 09:12:32;;;;;;;8.43;7.72;;;;;;;;;;5133821;27;20231;-67
2022/07/22 09:15:00;;;;;;;8.55;7.85;;;;;;;;;;5134346;27;20198;-67
2022/07/22 09:17:28;;;;;;;8.35;7.63;;;;;;;;;;5135124;28;20218;-66
2022/07/22 09:19:56;;;;;;;8.27;7.68;;;;;;;;;;5134701;28;20198;-66
2022/07/22 09:22:35;;;;;;;7.90;7.35;;;;;;;;;;5134719;28;20745;-71
2022/07/22 09:25:18;;;;;;;8.10;7.40;;;;;;;;;;5134089;28;20209;-66
2022/07/22 09:27:45;;;;;;;8.57;7.88;;;;;;;;;;5133035;27;20244;-66
2022/07/22 09:30:13;;;;;;;7.60;7.00;;;;;;;;;;5134362;27;20266;-65
2022/07/22 09:32:42;;;;;;;8.30;7.57;;;;;;;;;;5137365;27;20255;-65
2022/07/22 09:35:10;;;;;;;8.38;7.68;;;;;;;;;;5138903;27;20589;-65
2022/07/22 09:37:39;;;;;;;7.97;7.28;;;;;;;;;;5138301;27;20237;-65
2022/07/22 09:40:16;;;;;;;7.95;6.80;;;;;;;;;;5137165;27;20199;-65
2022/07/22 09:42:47;;;;;;;7.88;7.07;;;;;;;;;;5136918;27;20259;-65
2022/07/22 09:45:14;;;;;;;8.00;7.30;;;;;;;;;;5138688;27;20259;-66
2022/07/22 09:47:42;;;;;;;7.15;6.63;;;;;;;;;;5136579;27;20186;-65
2022/07/22 09:50:20;;;;;;;6.90;6.30;;;;;;;;;;5137330;27;20201;-66
2022/07/22 09:52:50;;;;;;;7.80;7.10;;;;;;;;;;5137713;27;20198;-65
2022/07/22 09:55:18;;;;;;;7.32;6.72;;;;;;;;;;5138587;27;20199;-65
2022/07/22 09:57:46;;;;;;;7.85;7.20;;;;;;;;;;5137979;27;20625;-65
2022/07/22 10:00:14;;;;;;;7.47;6.88;;;;;;;;;;5136279;27;20202;-65
2022/07/22 10:02:43;;;;;;;7.88;7.18;;;;;;;;;;5137189;27;20206;-65
2022/07/22 10:05:12;;;;;;;7.55;6.95;;;;;;;;;;5136831;27;20194;-65
2022/07/22 10:07:40;;;;;;;7.78;7.15;;;;;;;;;;5136848;27;20251;-66
2022/07/22 10:10:10;;;;;;;7.60;7.10;;;;;;;;;;5136249;27;20586;-66
2022/07/22 10:12:38;;;;;;;7.88;7.18;;;;;;;;;;5136407;27;20206;-65
2022/07/22 10:15:07;;;;;;;7.07;6.50;;;;;;;;;;5136247;27;20281;-65
2022/07/22 10:17:34;;;;;;;7.13;6.43;;;;;;;;;;5136205;27;20246;-65
2022/07/22 10:20:02;;;;;;;7.30;6.70;;;;;;;;;;5136279;27;20230;-65
2022/07/22 10:22:51;;;;;;;7.70;7.10;;;;;;;;;;5136750;27;20305;-65
2022/07/22 10:25:21;;;;;;;6.95;6.45;;;;;;;;;;5136817;27;20263;-66
2022/07/22 10:27:49;;;;;;;7.05;6.45;;;;;;;;;;5137539;27;20195;-66
2022/07/22 10:30:17;;;;;;;7.05;6.55;;;;;;;;;;5133903;27;20195;-66
2022/07/22 10:32:46;;;;;;;6.85;6.35;;;;;;;;;;5137215;27;20259;-66
2022/07/22 10:35:26;;;;;;;7.53;6.93;;;;;;;;;;5135667;27;20631;-66
2022/07/22 10:37:55;;;;;;;7.65;6.95;;;;;;;;;;5135703;27;20305;-66
2022/07/22 10:40:25;;;;;;;7.10;6.47;;;;;;;;;;5136889;27;20194;-66
2022/07/22 10:43:09;;;;;;;7.15;6.55;;;;;;;;;;5134749;27;20613;-66
2022/07/22 10:45:39;;;;;;;7.03;6.43;;;;;;;;;;5135943;27;20194;-67
2022/07/22 10:48:08;;;;;;;6.93;6.32;;;;;;;;;;5136957;27;20194;-67
2022/07/22 10:50:57;;;;;;;7.18;6.57;;;;;;;;;;5134939;27;20202;-66
2022/07/22 10:53:26;;;;;;;6.70;6.20;;;;;;;;;;5137259;27;20705;-66
2022/07/22 10:56:02;;;;;;;6.80;6.20;;;;;;;;;;5135515;27;20204;-66
2022/07/22 10:58:56;;;;;;;6.93;6.35;;;;;;;;;;5134981;27;20220;-66
2022/07/22 11:01:25;;;;;;;7.13;6.60;;;;;;;;;;5075224;27;20194;-66
2022/07/22 11:03:53;;;;;;;7.07;6.53;;;;;;;;;;5134314;27;20194;-66
2022/07/22 11:06:25;;;;;;;7.28;6.78;;;;;;;;;;5134443;27;20200;-66
2022/07/22 11:08:53;;;;;;;6.72;6.22;;;;;;;;;;5133002;27;20195;-65
2022/07/22 11:11:32;;;;;;;7.18;6.57;;;;;;;;;;5136157;27;20194;-65
2022/07/22 11:14:00;;;;;;;6.35;5.85;;;;;;;;;;5134328;27;20216;-66
2022/07/22 11:16:28;;;;;;;6.40;5.90;;;;;;;;;;5134505;27;20198;-65
2022/07/22 11:18:56;;;;;;;6.15;5.75;;;;;;;;;;5135845;27;20248;-65
2022/07/22 11:21:24;;;;;;;6.55;6.05;;;;;;;;;;5134671;27;20259;-65
2022/07/22 11:23:52;;;;;;;6.60;6.10;;;;;;;;;;5134333;27;20188;-65
2022/07/22 11:26:26;;;;;;;6.32;5.90;;;;;;;;;;5135400;27;20252;-65
2022/07/22 11:28:53;;;;;;;6.38;5.88;;;;;;;;;;5135277;27;20357;-65
2022/07/22 11:31:21;;;;;;;6.88;6.38;;;;;;;;;;5117298;27;20567;-65
2022/07/22 11:33:48;;;;;;;6.65;6.15;;;;;;;;;;5120716;27;20191;-65
2022/07/22 11:36:15;;;;;;;6.15;5.75;;;;;;;;;;5114911;28;20199;-65
2022/07/22 11:38:44;;;;;;;6.75;6.25;;;;;;;;;;5117838;27;20233;-65
2022/07/22 11:41:11;;;;;;;6.80;6.20;;;;;;;;;;5114650;28;20256;-65
2022/07/22 11:43:44;;;;;;;6.18;5.78;;;;;;;;;;5114397;28;20195;-65
2022/07/22 11:46:12;;;;;;;7.05;6.40;;;;;;;;;;5113513;28;20231;-65
2022/07/22 11:48:39;;;;;;;7.10;6.60;;;;;;;;;;5114976;28;20191;-65
2022/07/22 11:51:09;;;;;;;6.30;5.90;;;;;;;;;;5115063;28;20221;-66
2022/07/22 11:53:38;;;;;;;7.03;6.45;;;;;;;;;;5114247;28;20218;-66
2022/07/22 11:56:06;;;;;;;6.13;5.63;;;;;;;;;;5114275;28;20313;-65
2022/07/22 11:58:40;;;;;;;6.97;6.45;;;;;;;;;;5114582;28;20542;-65
2022/07/22 12:01:10;;;;;;;6.60;6.10;;;;;;;;;;5114941;28;20198;-65
2022/07/22 12:03:38;;;;;;;6.13;5.72;;;;;;;;;;5114301;28;20197;-65
2022/07/22 12:06:06;;;;;;;6.28;5.88;;;;;;;;;;5114944;28;20199;-65
2022/07/22 12:08:34;;;;;;;6.50;5.95;;;;;;;;;;5113124;28;20195;-65
2022/07/22 12:11:01;;;;;;;6.55;6.05;;;;;;;;;;5114270;28;20677;-65
2022/07/22 12:13:31;;;;;;;5.90;5.50;;;;;;;;;;5115478;28;20285;-65
2022/07/22 12:15:59;;;;;;;6.32;5.82;;;;;;;;;;5113024;28;20466;-65
2022/07/22 12:18:28;;;;;;;6.85;6.35;;;;;;;;;;5113854;28;20672;-65
2022/07/22 12:20:57;;;;;;;6.38;5.93;;;;;;;;;;5113552;28;20195;-69
2022/07/22 12:23:26;;;;;;;6.03;5.55;;;;;;;;;;5114093;28;20191;-65
2022/07/22 12:25:57;;;;;;;6.70;6.20;;;;;;;;;;5113321;28;20824;-65
2022/07/22 12:28:25;;;;;;;6.25;5.85;;;;;;;;;;5115375;27;20218;-65
2022/07/22 12:30:52;;;;;;;6.32;5.72;;;;;;;;;;5121781;27;20190;-65
2022/07/22 12:33:20;;;;;;;5.72;5.32;;;;;;;;;;5130569;27;20206;-65
2022/07/22 12:36:04;;;;;;;6.13;5.72;;;;;;;;;;5127717;27;20203;-65
2022/07/22 12:38:33;;;;;;;5.90;5.50;;;;;;;;;;5108486;28;20222;-65
2022/07/22 12:41:15;;;;;;;5.82;5.40;;;;;;;;;;5117133;27;20651;-65
2022/07/22 12:43:42;;;;;;;6.35;5.90;;;;;;;;;;5121189;27;20529;-65
2022/07/22 12:46:12;;;;;;;6.07;5.60;;;;;;;;;;5124397;27;20199;-65
2022/07/22 12:48:51;;;;;;;6.25;5.80;;;;;;;;;;5127562;27;20248;-66
2022/07/22 12:51:18;;;;;;;5.90;5.50;;;;;;;;;;5121008;27;20220;-65
2022/07/22 12:53:47;;;;;;;6.00;5.60;;;;;;;;;;5128755;27;20548;-65
2022/07/22 12:56:14;;;;;;;5.90;5.50;;;;;;;;;;5121378;27;20319;-66
2022/07/22 12:58:42;;;;;;;5.53;5.10;;;;;;;;;;5124794;27;20267;-65
2022/07/22 13:01:09;;;;;;;6.20;5.72;;;;;;;;;;5122748;27;20198;-65
2022/07/22 13:03:37;;;;;;;6.05;5.65;;;;;;;;;;5123833;27;20199;-65
2022/07/22 13:06:06;;;;;;;6.30;5.80;;;;;;;;;;5123110;27;20301;-65
2022/07/22 13:08:34;;;;;;;5.95;5.55;;;;;;;;;;5125229;28;20195;-66
2022/07/22 13:11:03;;;;;;;6.18;5.68;;;;;;;;;;5127289;28;20233;-65
2022/07/22 13:13:30;;;;;;;5.72;5.32;;;;;;;;;;5121058;28;20202;-65
2022/07/22 13:15:57;;;;;;;5.72;5.32;;;;;;;;;;5123591;28;20187;-65
2022/07/22 13:18:26;;;;;;;5.97;5.57;;;;;;;;;;5118700;28;20222;-65
2022/07/22 13:20:53;;;;;;;6.10;5.70;;;;;;;;;;5127302;28;20258;-65
2022/07/22 13:23:21;;;;;;;6.05;5.65;;;;;;;;;;5124525;28;20203;-65
2022/07/22 13:25:48;;;;;;;6.00;5.50;;;;;;;;;;5114014;28;20301;-65
2022/07/22 13:28:17;;;;;;;5.90;5.43;;;;;;;;;;5118335;27;20325;-65
2022/07/22 13:30:44;;;;;;;6.07;5.57;;;;;;;;;;5121567;28;20276;-65
2022/07/22 13:33:12;;;;;;;6.07;5.65;;;;;;;;;;5134680;28;20247;-65
2022/07/22 13:35:39;;;;;;;5.63;5.13;;;;;;;;;;5124303;28;20195;-65
2022/07/22 13:38:06;;;;;;;5.72;5.32;;;;;;;;;;5122839;28;20630;-66
2022/07/22 13:40:34;;;;;;;5.70;5.30;;;;;;;;;;5128170;28;20225;-65
2022/07/22 13:43:03;;;;;;;5.75;5.35;;;;;;;;;;5123124;28;20202;-65
2022/07/22 13:45:36;;;;;;;5.40;5.00;;;;;;;;;;5125935;28;20202;-66
2022/07/22 13:48:04;;;;;;;5.70;5.30;;;;;;;;;;5127726;28;20197;-65
2022/07/22 13:50:31;;;;;;;5.55;5.15;;;;;;;;;;5122501;28;20261;-65
2022/07/22 13:52:59;;;;;;;5.72;5.32;;;;;;;;;;5122712;28;20474;-65
2022/07/22 13:55:26;;;;;;;5.50;5.10;;;;;;;;;;5127962;28;20230;-65
2022/07/22 13:57:57;;;;;;;6.13;5.70;;;;;;;;;;5126707;28;20476;-65
2022/07/22 14:00:24;;;;;;;5.03;4.72;;;;;;;;;;5127666;28;20190;-65
2022/07/22 14:02:53;;;;;;;6.05;5.57;;;;;;;;;;5124789;28;20199;-65
2022/07/22 14:05:20;;;;;;;5.53;5.13;;;;;;;;;;5123587;28;20195;-65
2022/07/22 14:07:48;;;;;;;5.60;5.20;;;;;;;;;;5119291;28;20260;-65
2022/07/22 14:10:16;;;;;;;5.25;4.95;;;;;;;;;;5114388;28;20226;-64
2022/07/22 14:12:43;;;;;;;5.22;4.88;;;;;;;;;;5127752;28;20221;-65
2022/07/22 14:15:14;;;;;;;4.97;4.68;;;;;;;;;;5125492;28;20195;-65
2022/07/22 14:17:42;;;;;;;5.50;5.00;;;;;;;;;;5131880;27;20194;-65
2022/07/22 14:20:11;;;;;;;6.03;5.57;;;;;;;;;;5123633;27;20218;-65
2022/07/22 14:22:38;;;;;;;5.50;5.15;;;;;;;;;;5129474;27;20196;-65
2022/07/22 14:25:06;;;;;;;5.47;5.07;;;;;;;;;;5129821;27;20210;-66
2022/07/22 14:27:33;;;;;;;5.65;5.25;;;;;;;;;;5131806;27;20226;-65
2022/07/22 14:30:01;;;;;;;5.57;5.18;;;;;;;;;;5128406;27;20626;-65
2022/07/22 14:32:28;;;;;;;5.40;5.00;;;;;;;;;;5128086;27;20282;-66
2022/07/22 14:34:55;;;;;;;6.32;5.82;;;;;;;;;;5134103;27;20554;-65
2022/07/22 14:37:25;;;;;;;5.55;5.15;;;;;;;;;;5123211;27;20230;-65
2022/07/22 14:39:53;;;;;;;5.70;5.30;;;;;;;;;;5134767;27;20545;-64
2022/07/22 14:42:20;;;;;;;5.45;5.05;;;;;;;;;;5133130;27;20283;-64
2022/07/22 14:44:47;;;;;;;5.40;5.10;;;;;;;;;;5136369;27;20220;-65
2022/07/22 14:47:14;;;;;;;5.50;5.10;;;;;;;;;;5132515;27;20222;-65
2022/07/22 14:49:42;;;;;;;5.22;4.93;;;;;;;;;;5134491;27;20579;-65